sensor_id;sensor_type;location;lat;lon;timestamp;P1;durP1;ratioP1;P2;durP2;ratioP2
10529;SDS011;5313;48.834;9.228;2023-11-19T00:01:08;4.03;;;2.80;;
10529;SDS011;5313;48.834;9.228;2023-11-19T00:03:33;3.53;;;2.77;;
10529;SDS011;5313;48.834;9.228;2023-11-19T00:06:00;3.30;;;2.60;;
10529;SDS011;5313;48.834;9.228;2023-11-19T00:08:25;4.47;;;2.70;;
10529;SDS011;5313;48.834;9.228;2023-11-19T00:10:52;3.33;;;2.70;;
10529;SDS011;5313;48.834;9.228;2023-11-19T00:13:17;3.17;;;2.50;;
10529;SDS011;5313;48.834;9.228;2023-11-19T00:15:43;3.23;;;2.90;;
10529;SDS011;5313;48.834;9.228;2023-11-19T00:18:10;3.20;;;2.90;;
10529;SDS011;5313;48.834;9.228;2023-11-19T00:20:35;3.97;;;2.40;;
10529;SDS011;5313;48.834;9.228;2023-11-19T00:23:01;3.83;;;2.93;;
10529;SDS011;5313;48.834;9.228;2023-11-19T00:25:27;3.40;;;2.90;;
10529;SDS011;5313;48.834;9.228;2023-11-19T00:27:53;3.57;;;2.80;;
10529;SDS011;5313;48.834;9.228;2023-11-19T00:30:18;3.73;;;3.03;;
10529;SDS011;5313;48.834;9.228;2023-11-19T00:32:44;4.70;;;3.37;;
10529;SDS011;5313;48.834;9.228;2023-11-19T00:35:10;4.53;;;2.87;;
10529;SDS011;5313;48.834;9.228;2023-11-19T00:37:37;3.97;;;2.97;;
10529;SDS011;5313;48.834;9.228;2023-11-19T00:40:02;3.63;;;2.93;;
10529;SDS011;5313;48.834;9.228;2023-11-19T00:42:30;3.67;;;3.07;;
10529;SDS011;5313;48.834;9.228;2023-11-19T00:44:56;4.70;;;2.80;;
10529;SDS011;5313;48.834;9.228;2023-11-19T00:47:21;4.67;;;3.00;;
10529;SDS011;5313;48.834;9.228;2023-11-19T00:49:47;5.30;;;2.80;;
10529;SDS011;5313;48.834;9.228;2023-11-19T00:52:16;4.67;;;3.23;;
10529;SDS011;5313;48.834;9.228;2023-11-19T00:54:42;4.43;;;3.07;;
10529;SDS011;5313;48.834;9.228;2023-11-19T00:57:08;5.73;;;2.87;;
10529;SDS011;5313;48.834;9.228;2023-11-19T00:59:33;4.53;;;2.80;;
10529;SDS011;5313;48.834;9.228;2023-11-19T01:01:59;2.90;;;2.43;;
10529;SDS011;5313;48.834;9.228;2023-11-19T01:04:28;2.87;;;2.37;;
10529;SDS011;5313;48.834;9.228;2023-11-19T01:06:54;4.07;;;2.23;;
10529;SDS011;5313;48.834;9.228;2023-11-19T01:09:20;2.80;;;2.30;;
10529;SDS011;5313;48.834;9.228;2023-11-19T01:11:45;3.30;;;2.50;;
10529;SDS011;5313;48.834;9.228;2023-11-19T01:14:11;4.67;;;2.90;;
10529;SDS011;5313;48.834;9.228;2023-11-19T01:16:36;4.93;;;2.40;;
10529;SDS011;5313;48.834;9.228;2023-11-19T01:19:02;3.70;;;2.70;;
10529;SDS011;5313;48.834;9.228;2023-11-19T01:21:29;3.00;;;2.70;;
10529;SDS011;5313;48.834;9.228;2023-11-19T01:23:55;5.03;;;2.37;;
10529;SDS011;5313;48.834;9.228;2023-11-19T01:26:22;2.47;;;1.97;;
10529;SDS011;5313;48.834;9.228;2023-11-19T01:28:47;3.23;;;2.07;;
10529;SDS011;5313;48.834;9.228;2023-11-19T01:31:16;2.73;;;1.87;;
10529;SDS011;5313;48.834;9.228;2023-11-19T01:33:41;2.53;;;1.83;;
10529;SDS011;5313;48.834;9.228;2023-11-19T01:36:07;2.97;;;1.97;;
10529;SDS011;5313;48.834;9.228;2023-11-19T01:38:34;3.60;;;2.20;;
10529;SDS011;5313;48.834;9.228;2023-11-19T01:41:00;3.03;;;1.70;;
10529;SDS011;5313;48.834;9.228;2023-11-19T01:43:38;4.00;;;2.00;;
10529;SDS011;5313;48.834;9.228;2023-11-19T01:46:06;2.83;;;1.83;;
10529;SDS011;5313;48.834;9.228;2023-11-19T01:48:34;1.70;;;1.47;;
10529;SDS011;5313;48.834;9.228;2023-11-19T01:51:05;3.27;;;1.93;;
10529;SDS011;5313;48.834;9.228;2023-11-19T01:53:33;2.57;;;1.70;;
10529;SDS011;5313;48.834;9.228;2023-11-19T01:56:01;2.73;;;1.80;;
10529;SDS011;5313;48.834;9.228;2023-11-19T01:58:27;2.30;;;1.60;;
10529;SDS011;5313;48.834;9.228;2023-11-19T02:00:54;2.30;;;1.77;;
10529;SDS011;5313;48.834;9.228;2023-11-19T02:03:21;3.40;;;1.87;;
10529;SDS011;5313;48.834;9.228;2023-11-19T02:05:47;1.73;;;1.60;;
10529;SDS011;5313;48.834;9.228;2023-11-19T02:08:14;2.23;;;1.63;;
10529;SDS011;5313;48.834;9.228;2023-11-19T02:10:39;2.87;;;1.70;;
10529;SDS011;5313;48.834;9.228;2023-11-19T02:13:05;2.00;;;1.30;;
10529;SDS011;5313;48.834;9.228;2023-11-19T02:15:31;3.03;;;1.90;;
10529;SDS011;5313;48.834;9.228;2023-11-19T02:18:16;3.60;;;3.00;;
10529;SDS011;5313;48.834;9.228;2023-11-19T02:20:43;4.27;;;3.20;;
10529;SDS011;5313;48.834;9.228;2023-11-19T02:23:09;5.90;;;3.60;;
10529;SDS011;5313;48.834;9.228;2023-11-19T02:25:34;4.63;;;3.30;;
10529;SDS011;5313;48.834;9.228;2023-11-19T02:28:02;4.43;;;3.43;;
10529;SDS011;5313;48.834;9.228;2023-11-19T02:30:29;6.73;;;3.70;;
10529;SDS011;5313;48.834;9.228;2023-11-19T02:32:55;7.77;;;4.10;;
10529;SDS011;5313;48.834;9.228;2023-11-19T02:35:22;6.93;;;3.83;;
10529;SDS011;5313;48.834;9.228;2023-11-19T02:37:48;5.37;;;4.33;;
10529;SDS011;5313;48.834;9.228;2023-11-19T02:40:14;9.10;;;4.30;;
10529;SDS011;5313;48.834;9.228;2023-11-19T02:42:39;6.33;;;4.27;;
10529;SDS011;5313;48.834;9.228;2023-11-19T02:45:05;7.10;;;4.53;;
10529;SDS011;5313;48.834;9.228;2023-11-19T02:47:32;6.80;;;4.87;;
10529;SDS011;5313;48.834;9.228;2023-11-19T02:49:58;6.27;;;4.77;;
10529;SDS011;5313;48.834;9.228;2023-11-19T02:52:24;7.83;;;4.73;;
10529;SDS011;5313;48.834;9.228;2023-11-19T02:54:50;5.87;;;4.80;;
10529;SDS011;5313;48.834;9.228;2023-11-19T02:57:16;7.43;;;5.03;;
10529;SDS011;5313;48.834;9.228;2023-11-19T02:59:44;6.73;;;5.03;;
10529;SDS011;5313;48.834;9.228;2023-11-19T03:02:10;7.80;;;5.60;;
10529;SDS011;5313;48.834;9.228;2023-11-19T03:04:36;8.20;;;5.33;;
10529;SDS011;5313;48.834;9.228;2023-11-19T03:07:05;7.33;;;5.53;;
10529;SDS011;5313;48.834;9.228;2023-11-19T03:09:32;7.63;;;5.53;;
10529;SDS011;5313;48.834;9.228;2023-11-19T03:11:59;9.00;;;5.37;;
10529;SDS011;5313;48.834;9.228;2023-11-19T03:14:25;7.07;;;5.00;;
10529;SDS011;5313;48.834;9.228;2023-11-19T03:16:50;9.60;;;5.60;;
10529;SDS011;5313;48.834;9.228;2023-11-19T03:19:16;8.13;;;5.73;;
10529;SDS011;5313;48.834;9.228;2023-11-19T03:21:41;8.17;;;6.23;;
10529;SDS011;5313;48.834;9.228;2023-11-19T03:24:07;6.70;;;5.50;;
10529;SDS011;5313;48.834;9.228;2023-11-19T03:26:33;7.40;;;5.07;;
10529;SDS011;5313;48.834;9.228;2023-11-19T03:28:59;10.80;;;5.60;;
10529;SDS011;5313;48.834;9.228;2023-11-19T03:31:24;9.70;;;5.57;;
10529;SDS011;5313;48.834;9.228;2023-11-19T03:33:50;7.80;;;5.73;;
10529;SDS011;5313;48.834;9.228;2023-11-19T03:36:16;8.63;;;6.03;;
10529;SDS011;5313;48.834;9.228;2023-11-19T03:38:42;7.00;;;5.40;;
10529;SDS011;5313;48.834;9.228;2023-11-19T03:41:14;7.10;;;5.93;;
10529;SDS011;5313;48.834;9.228;2023-11-19T03:43:40;8.03;;;5.43;;
10529;SDS011;5313;48.834;9.228;2023-11-19T03:46:16;6.80;;;5.23;;
10529;SDS011;5313;48.834;9.228;2023-11-19T03:48:49;7.03;;;5.57;;
10529;SDS011;5313;48.834;9.228;2023-11-19T03:51:15;10.50;;;6.50;;
10529;SDS011;5313;48.834;9.228;2023-11-19T03:53:44;8.87;;;6.30;;
10529;SDS011;5313;48.834;9.228;2023-11-19T03:56:10;8.53;;;5.83;;
10529;SDS011;5313;48.834;9.228;2023-11-19T03:58:36;4.47;;;3.33;;
10529;SDS011;5313;48.834;9.228;2023-11-19T04:01:03;3.47;;;2.70;;
10529;SDS011;5313;48.834;9.228;2023-11-19T04:03:29;2.67;;;1.80;;
10529;SDS011;5313;48.834;9.228;2023-11-19T04:05:55;2.17;;;1.50;;
10529;SDS011;5313;48.834;9.228;2023-11-19T04:08:21;2.20;;;1.97;;
10529;SDS011;5313;48.834;9.228;2023-11-19T04:10:47;2.97;;;1.70;;
10529;SDS011;5313;48.834;9.228;2023-11-19T04:13:13;1.80;;;1.20;;
10529;SDS011;5313;48.834;9.228;2023-11-19T04:15:38;2.30;;;1.27;;
10529;SDS011;5313;48.834;9.228;2023-11-19T04:18:04;1.30;;;1.20;;
10529;SDS011;5313;48.834;9.228;2023-11-19T04:20:29;2.47;;;1.20;;
10529;SDS011;5313;48.834;9.228;2023-11-19T04:22:56;1.93;;;1.20;;
10529;SDS011;5313;48.834;9.228;2023-11-19T04:25:22;10.67;;;6.80;;
10529;SDS011;5313;48.834;9.228;2023-11-19T04:27:47;9.63;;;6.77;;
10529;SDS011;5313;48.834;9.228;2023-11-19T04:30:14;8.73;;;6.80;;
10529;SDS011;5313;48.834;9.228;2023-11-19T04:32:40;7.40;;;5.00;;
10529;SDS011;5313;48.834;9.228;2023-11-19T04:35:06;1.90;;;1.40;;
10529;SDS011;5313;48.834;9.228;2023-11-19T04:37:32;2.40;;;1.27;;
10529;SDS011;5313;48.834;9.228;2023-11-19T04:39:57;1.37;;;0.80;;
10529;SDS011;5313;48.834;9.228;2023-11-19T04:42:24;0.87;;;0.87;;
10529;SDS011;5313;48.834;9.228;2023-11-19T04:44:50;1.90;;;1.53;;
10529;SDS011;5313;48.834;9.228;2023-11-19T04:47:16;2.00;;;1.30;;
10529;SDS011;5313;48.834;9.228;2023-11-19T04:49:41;4.83;;;2.67;;
10529;SDS011;5313;48.834;9.228;2023-11-19T04:52:09;2.73;;;1.97;;
10529;SDS011;5313;48.834;9.228;2023-11-19T04:54:40;2.80;;;2.30;;
10529;SDS011;5313;48.834;9.228;2023-11-19T04:57:08;1.63;;;1.17;;
10529;SDS011;5313;48.834;9.228;2023-11-19T04:59:37;1.10;;;0.93;;
10529;SDS011;5313;48.834;9.228;2023-11-19T05:02:03;1.67;;;1.20;;
10529;SDS011;5313;48.834;9.228;2023-11-19T05:04:29;1.60;;;1.00;;
10529;SDS011;5313;48.834;9.228;2023-11-19T05:06:55;0.97;;;0.77;;
10529;SDS011;5313;48.834;9.228;2023-11-19T05:09:21;0.73;;;0.63;;
10529;SDS011;5313;48.834;9.228;2023-11-19T05:11:46;1.00;;;0.50;;
10529;SDS011;5313;48.834;9.228;2023-11-19T05:14:13;0.70;;;0.50;;
10529;SDS011;5313;48.834;9.228;2023-11-19T05:16:39;0.87;;;0.50;;
10529;SDS011;5313;48.834;9.228;2023-11-19T05:19:07;0.40;;;0.30;;
10529;SDS011;5313;48.834;9.228;2023-11-19T05:21:34;2.10;;;0.50;;
10529;SDS011;5313;48.834;9.228;2023-11-19T05:24:00;1.77;;;0.40;;
10529;SDS011;5313;48.834;9.228;2023-11-19T05:26:29;0.50;;;0.30;;
10529;SDS011;5313;48.834;9.228;2023-11-19T05:28:55;0.40;;;0.30;;
10529;SDS011;5313;48.834;9.228;2023-11-19T05:31:20;0.30;;;0.20;;
10529;SDS011;5313;48.834;9.228;2023-11-19T05:33:46;0.67;;;0.30;;
10529;SDS011;5313;48.834;9.228;2023-11-19T05:36:12;0.93;;;0.33;;
10529;SDS011;5313;48.834;9.228;2023-11-19T05:38:38;0.87;;;0.20;;
10529;SDS011;5313;48.834;9.228;2023-11-19T05:41:04;0.47;;;0.20;;
10529;SDS011;5313;48.834;9.228;2023-11-19T05:43:30;0.20;;;0.20;;
10529;SDS011;5313;48.834;9.228;2023-11-19T05:45:56;0.20;;;0.20;;
10529;SDS011;5313;48.834;9.228;2023-11-19T05:48:21;0.20;;;0.20;;
10529;SDS011;5313;48.834;9.228;2023-11-19T05:50:47;0.30;;;0.20;;
10529;SDS011;5313;48.834;9.228;2023-11-19T05:53:14;4.53;;;0.40;;
10529;SDS011;5313;48.834;9.228;2023-11-19T05:55:41;2.13;;;0.60;;
10529;SDS011;5313;48.834;9.228;2023-11-19T05:58:19;1.60;;;0.30;;
10529;SDS011;5313;48.834;9.228;2023-11-19T06:00:47;0.23;;;0.20;;
10529;SDS011;5313;48.834;9.228;2023-11-19T06:03:12;0.10;;;0.10;;
10529;SDS011;5313;48.834;9.228;2023-11-19T06:05:38;0.33;;;0.27;;
10529;SDS011;5313;48.834;9.228;2023-11-19T06:08:04;1.23;;;0.23;;
10529;SDS011;5313;48.834;9.228;2023-11-19T06:10:31;0.57;;;0.33;;
10529;SDS011;5313;48.834;9.228;2023-11-19T06:12:58;0.43;;;0.40;;
10529;SDS011;5313;48.834;9.228;2023-11-19T06:15:24;0.30;;;0.20;;
10529;SDS011;5313;48.834;9.228;2023-11-19T06:17:53;0.40;;;0.20;;
10529;SDS011;5313;48.834;9.228;2023-11-19T06:20:20;0.37;;;0.23;;
10529;SDS011;5313;48.834;9.228;2023-11-19T06:22:45;0.30;;;0.30;;
10529;SDS011;5313;48.834;9.228;2023-11-19T06:25:11;0.93;;;0.40;;
10529;SDS011;5313;48.834;9.228;2023-11-19T06:27:39;0.20;;;0.20;;
10529;SDS011;5313;48.834;9.228;2023-11-19T06:30:08;0.20;;;0.20;;
10529;SDS011;5313;48.834;9.228;2023-11-19T06:32:34;0.83;;;0.33;;
10529;SDS011;5313;48.834;9.228;2023-11-19T06:35:00;0.40;;;0.27;;
10529;SDS011;5313;48.834;9.228;2023-11-19T06:37:25;0.30;;;0.20;;
10529;SDS011;5313;48.834;9.228;2023-11-19T06:39:52;0.50;;;0.20;;
10529;SDS011;5313;48.834;9.228;2023-11-19T06:42:17;0.10;;;0.10;;
10529;SDS011;5313;48.834;9.228;2023-11-19T06:44:43;0.30;;;0.30;;
10529;SDS011;5313;48.834;9.228;2023-11-19T06:47:08;1.23;;;0.30;;
10529;SDS011;5313;48.834;9.228;2023-11-19T06:49:34;0.20;;;0.20;;
10529;SDS011;5313;48.834;9.228;2023-11-19T06:51:59;0.10;;;0.10;;
10529;SDS011;5313;48.834;9.228;2023-11-19T06:54:25;0.40;;;0.40;;
10529;SDS011;5313;48.834;9.228;2023-11-19T06:56:50;0.53;;;0.17;;
10529;SDS011;5313;48.834;9.228;2023-11-19T06:59:16;1.10;;;0.20;;
10529;SDS011;5313;48.834;9.228;2023-11-19T07:01:41;0.50;;;0.30;;
10529;SDS011;5313;48.834;9.228;2023-11-19T07:04:10;0.20;;;0.20;;
10529;SDS011;5313;48.834;9.228;2023-11-19T07:06:37;0.20;;;0.20;;
10529;SDS011;5313;48.834;9.228;2023-11-19T07:09:04;0.30;;;0.30;;
10529;SDS011;5313;48.834;9.228;2023-11-19T07:11:43;0.47;;;0.30;;
10529;SDS011;5313;48.834;9.228;2023-11-19T07:14:10;1.83;;;0.47;;
10529;SDS011;5313;48.834;9.228;2023-11-19T07:16:36;0.23;;;0.20;;
10529;SDS011;5313;48.834;9.228;2023-11-19T07:19:04;0.37;;;0.30;;
10529;SDS011;5313;48.834;9.228;2023-11-19T07:21:30;0.30;;;0.30;;
10529;SDS011;5313;48.834;9.228;2023-11-19T07:23:56;1.30;;;0.40;;
10529;SDS011;5313;48.834;9.228;2023-11-19T07:26:21;0.43;;;0.30;;
10529;SDS011;5313;48.834;9.228;2023-11-19T07:28:48;0.40;;;0.40;;
10529;SDS011;5313;48.834;9.228;2023-11-19T07:31:16;0.40;;;0.30;;
10529;SDS011;5313;48.834;9.228;2023-11-19T07:33:44;3.37;;;0.40;;
10529;SDS011;5313;48.834;9.228;2023-11-19T07:36:11;0.47;;;0.40;;
10529;SDS011;5313;48.834;9.228;2023-11-19T07:38:37;1.20;;;0.47;;
10529;SDS011;5313;48.834;9.228;2023-11-19T07:41:03;0.57;;;0.40;;
10529;SDS011;5313;48.834;9.228;2023-11-19T07:43:30;0.30;;;0.30;;
10529;SDS011;5313;48.834;9.228;2023-11-19T07:45:55;0.87;;;0.43;;
10529;SDS011;5313;48.834;9.228;2023-11-19T07:48:21;2.83;;;2.20;;
10529;SDS011;5313;48.834;9.228;2023-11-19T07:50:48;4.13;;;1.80;;
10529;SDS011;5313;48.834;9.228;2023-11-19T07:53:18;2.53;;;1.83;;
10529;SDS011;5313;48.834;9.228;2023-11-19T07:55:44;2.20;;;1.27;;
10529;SDS011;5313;48.834;9.228;2023-11-19T07:58:12;0.90;;;0.73;;
10529;SDS011;5313;48.834;9.228;2023-11-19T08:00:38;2.67;;;1.10;;
10529;SDS011;5313;48.834;9.228;2023-11-19T08:03:05;0.30;;;0.30;;
10529;SDS011;5313;48.834;9.228;2023-11-19T08:05:31;1.37;;;0.50;;
10529;SDS011;5313;48.834;9.228;2023-11-19T08:07:56;1.07;;;0.40;;
10529;SDS011;5313;48.834;9.228;2023-11-19T08:10:23;0.83;;;0.40;;
10529;SDS011;5313;48.834;9.228;2023-11-19T08:12:49;0.60;;;0.47;;
10529;SDS011;5313;48.834;9.228;2023-11-19T08:15:14;0.40;;;0.40;;
10529;SDS011;5313;48.834;9.228;2023-11-19T08:17:40;1.17;;;0.40;;
10529;SDS011;5313;48.834;9.228;2023-11-19T08:20:07;1.53;;;0.50;;
10529;SDS011;5313;48.834;9.228;2023-11-19T08:22:35;0.40;;;0.33;;
10529;SDS011;5313;48.834;9.228;2023-11-19T08:25:02;0.77;;;0.40;;
10529;SDS011;5313;48.834;9.228;2023-11-19T08:27:29;0.50;;;0.30;;
10529;SDS011;5313;48.834;9.228;2023-11-19T08:29:54;2.07;;;0.60;;
10529;SDS011;5313;48.834;9.228;2023-11-19T08:32:23;2.63;;;0.50;;
10529;SDS011;5313;48.834;9.228;2023-11-19T08:34:52;0.60;;;0.40;;
10529;SDS011;5313;48.834;9.228;2023-11-19T08:37:18;0.70;;;0.50;;
10529;SDS011;5313;48.834;9.228;2023-11-19T08:39:46;2.23;;;0.43;;
10529;SDS011;5313;48.834;9.228;2023-11-19T08:42:12;1.23;;;0.40;;
10529;SDS011;5313;48.834;9.228;2023-11-19T08:44:38;0.77;;;0.40;;
10529;SDS011;5313;48.834;9.228;2023-11-19T08:47:03;0.67;;;0.50;;
10529;SDS011;5313;48.834;9.228;2023-11-19T08:49:29;0.60;;;0.50;;
10529;SDS011;5313;48.834;9.228;2023-11-19T08:51:55;0.70;;;0.70;;
10529;SDS011;5313;48.834;9.228;2023-11-19T08:54:20;1.10;;;0.50;;
10529;SDS011;5313;48.834;9.228;2023-11-19T08:56:47;0.80;;;0.50;;
10529;SDS011;5313;48.834;9.228;2023-11-19T08:59:13;0.83;;;0.43;;
10529;SDS011;5313;48.834;9.228;2023-11-19T09:01:40;1.07;;;0.50;;
10529;SDS011;5313;48.834;9.228;2023-11-19T09:04:06;0.50;;;0.40;;
10529;SDS011;5313;48.834;9.228;2023-11-19T09:06:31;1.10;;;0.60;;
10529;SDS011;5313;48.834;9.228;2023-11-19T09:08:57;0.77;;;0.50;;
10529;SDS011;5313;48.834;9.228;2023-11-19T09:11:26;0.60;;;0.40;;
10529;SDS011;5313;48.834;9.228;2023-11-19T09:13:52;1.27;;;0.47;;
10529;SDS011;5313;48.834;9.228;2023-11-19T09:16:17;2.17;;;0.40;;
10529;SDS011;5313;48.834;9.228;2023-11-19T09:18:43;1.13;;;0.40;;
10529;SDS011;5313;48.834;9.228;2023-11-19T09:21:10;0.80;;;0.40;;
10529;SDS011;5313;48.834;9.228;2023-11-19T09:23:36;0.73;;;0.50;;
10529;SDS011;5313;48.834;9.228;2023-11-19T09:26:04;3.73;;;0.57;;
10529;SDS011;5313;48.834;9.228;2023-11-19T09:28:30;0.50;;;0.40;;
10529;SDS011;5313;48.834;9.228;2023-11-19T09:30:56;0.70;;;0.40;;
10529;SDS011;5313;48.834;9.228;2023-11-19T09:33:22;1.50;;;0.77;;
10529;SDS011;5313;48.834;9.228;2023-11-19T09:35:48;1.07;;;0.50;;
10529;SDS011;5313;48.834;9.228;2023-11-19T09:38:14;1.80;;;0.60;;
10529;SDS011;5313;48.834;9.228;2023-11-19T09:40:40;0.60;;;0.43;;
10529;SDS011;5313;48.834;9.228;2023-11-19T09:43:06;1.30;;;0.50;;
10529;SDS011;5313;48.834;9.228;2023-11-19T09:45:33;0.80;;;0.50;;
10529;SDS011;5313;48.834;9.228;2023-11-19T09:48:13;2.67;;;0.40;;
10529;SDS011;5313;48.834;9.228;2023-11-19T09:50:41;1.70;;;0.40;;
10529;SDS011;5313;48.834;9.228;2023-11-19T09:53:07;0.97;;;0.50;;
10529;SDS011;5313;48.834;9.228;2023-11-19T09:55:33;1.03;;;0.50;;
10529;SDS011;5313;48.834;9.228;2023-11-19T09:57:58;0.83;;;0.63;;
10529;SDS011;5313;48.834;9.228;2023-11-19T10:00:26;0.60;;;0.43;;
10529;SDS011;5313;48.834;9.228;2023-11-19T10:02:52;1.50;;;0.80;;
10529;SDS011;5313;48.834;9.228;2023-11-19T10:05:19;0.73;;;0.50;;
10529;SDS011;5313;48.834;9.228;2023-11-19T10:07:46;0.90;;;0.60;;
10529;SDS011;5313;48.834;9.228;2023-11-19T10:10:12;0.80;;;0.40;;
10529;SDS011;5313;48.834;9.228;2023-11-19T10:12:46;1.07;;;0.60;;
10529;SDS011;5313;48.834;9.228;2023-11-19T10:15:20;1.23;;;0.40;;
10529;SDS011;5313;48.834;9.228;2023-11-19T10:17:47;0.73;;;0.50;;
10529;SDS011;5313;48.834;9.228;2023-11-19T10:20:13;0.90;;;0.50;;
10529;SDS011;5313;48.834;9.228;2023-11-19T10:22:38;1.47;;;0.90;;
10529;SDS011;5313;48.834;9.228;2023-11-19T10:25:05;1.30;;;0.50;;
10529;SDS011;5313;48.834;9.228;2023-11-19T10:27:46;4.47;;;0.73;;
10529;SDS011;5313;48.834;9.228;2023-11-19T10:30:11;0.50;;;0.50;;
10529;SDS011;5313;48.834;9.228;2023-11-19T10:32:37;0.50;;;0.50;;
10529;SDS011;5313;48.834;9.228;2023-11-19T10:35:06;2.13;;;0.60;;
10529;SDS011;5313;48.834;9.228;2023-11-19T10:37:32;1.67;;;0.80;;
10529;SDS011;5313;48.834;9.228;2023-11-19T10:40:00;1.23;;;0.60;;
10529;SDS011;5313;48.834;9.228;2023-11-19T10:42:25;0.93;;;0.70;;
10529;SDS011;5313;48.834;9.228;2023-11-19T10:44:51;0.80;;;0.50;;
10529;SDS011;5313;48.834;9.228;2023-11-19T10:47:18;1.10;;;0.60;;
10529;SDS011;5313;48.834;9.228;2023-11-19T10:49:44;1.27;;;0.57;;
10529;SDS011;5313;48.834;9.228;2023-11-19T10:52:14;0.50;;;0.40;;
10529;SDS011;5313;48.834;9.228;2023-11-19T10:54:46;0.83;;;0.40;;
10529;SDS011;5313;48.834;9.228;2023-11-19T10:57:17;1.70;;;0.50;;
10529;SDS011;5313;48.834;9.228;2023-11-19T10:59:45;1.70;;;0.60;;
10529;SDS011;5313;48.834;9.228;2023-11-19T11:02:12;2.00;;;0.50;;
10529;SDS011;5313;48.834;9.228;2023-11-19T11:04:44;1.57;;;0.83;;
10529;SDS011;5313;48.834;9.228;2023-11-19T11:07:12;1.00;;;0.60;;
10529;SDS011;5313;48.834;9.228;2023-11-19T11:09:40;1.93;;;0.90;;
10529;SDS011;5313;48.834;9.228;2023-11-19T11:12:06;2.00;;;0.80;;
10529;SDS011;5313;48.834;9.228;2023-11-19T11:14:35;3.90;;;0.90;;
10529;SDS011;5313;48.834;9.228;2023-11-19T11:17:05;1.37;;;0.40;;
10529;SDS011;5313;48.834;9.228;2023-11-19T11:19:33;1.50;;;0.63;;
10529;SDS011;5313;48.834;9.228;2023-11-19T11:21:59;1.50;;;0.60;;
10529;SDS011;5313;48.834;9.228;2023-11-19T11:24:44;3.43;;;0.60;;
10529;SDS011;5313;48.834;9.228;2023-11-19T11:27:36;1.10;;;0.80;;
10529;SDS011;5313;48.834;9.228;2023-11-19T11:33:14;1.70;;;0.80;;
10529;SDS011;5313;48.834;9.228;2023-11-19T11:35:57;1.90;;;0.70;;
10529;SDS011;5313;48.834;9.228;2023-11-19T11:38:30;1.40;;;0.60;;
10529;SDS011;5313;48.834;9.228;2023-11-19T11:41:19;3.60;;;0.50;;
10529;SDS011;5313;48.834;9.228;2023-11-19T11:43:51;1.23;;;0.70;;
10529;SDS011;5313;48.834;9.228;2023-11-19T11:49:05;1.67;;;0.70;;
10529;SDS011;5313;48.834;9.228;2023-11-19T11:59:43;3.53;;;0.50;;
10529;SDS011;5313;48.834;9.228;2023-11-19T12:02:09;1.53;;;0.50;;
10529;SDS011;5313;48.834;9.228;2023-11-19T12:04:36;4.73;;;0.70;;
10529;SDS011;5313;48.834;9.228;2023-11-19T12:07:03;1.73;;;0.70;;
10529;SDS011;5313;48.834;9.228;2023-11-19T12:09:33;2.73;;;1.10;;
10529;SDS011;5313;48.834;9.228;2023-11-19T12:12:12;1.67;;;0.70;;
10529;SDS011;5313;48.834;9.228;2023-11-19T12:20:02;1.10;;;0.60;;
10529;SDS011;5313;48.834;9.228;2023-11-19T12:22:31;1.57;;;0.70;;
10529;SDS011;5313;48.834;9.228;2023-11-19T12:24:56;1.33;;;0.70;;
10529;SDS011;5313;48.834;9.228;2023-11-19T12:27:23;1.93;;;0.70;;
10529;SDS011;5313;48.834;9.228;2023-11-19T12:29:49;1.40;;;0.70;;
10529;SDS011;5313;48.834;9.228;2023-11-19T12:32:14;1.77;;;0.77;;
10529;SDS011;5313;48.834;9.228;2023-11-19T12:34:40;1.33;;;0.60;;
10529;SDS011;5313;48.834;9.228;2023-11-19T12:37:05;1.87;;;0.43;;
10529;SDS011;5313;48.834;9.228;2023-11-19T12:39:31;2.00;;;0.67;;
10529;SDS011;5313;48.834;9.228;2023-11-19T12:41:57;0.93;;;0.43;;
10529;SDS011;5313;48.834;9.228;2023-11-19T12:44:26;1.47;;;0.63;;
10529;SDS011;5313;48.834;9.228;2023-11-19T12:47:01;1.17;;;0.43;;
10529;SDS011;5313;48.834;9.228;2023-11-19T12:49:36;1.87;;;0.80;;
10529;SDS011;5313;48.834;9.228;2023-11-19T12:52:01;4.30;;;0.90;;
10529;SDS011;5313;48.834;9.228;2023-11-19T12:54:36;0.77;;;0.40;;
10529;SDS011;5313;48.834;9.228;2023-11-19T12:57:02;2.00;;;0.53;;
10529;SDS011;5313;48.834;9.228;2023-11-19T12:59:30;1.27;;;0.50;;
10529;SDS011;5313;48.834;9.228;2023-11-19T13:01:56;4.50;;;1.00;;
10529;SDS011;5313;48.834;9.228;2023-11-19T13:04:22;0.40;;;0.30;;
10529;SDS011;5313;48.834;9.228;2023-11-19T13:06:49;3.13;;;0.50;;
10529;SDS011;5313;48.834;9.228;2023-11-19T13:09:25;1.93;;;0.80;;
10529;SDS011;5313;48.834;9.228;2023-11-19T13:11:52;0.70;;;0.60;;
10529;SDS011;5313;48.834;9.228;2023-11-19T13:14:18;1.33;;;0.50;;
10529;SDS011;5313;48.834;9.228;2023-11-19T13:16:44;3.57;;;0.60;;
10529;SDS011;5313;48.834;9.228;2023-11-19T13:19:13;1.37;;;0.60;;
10529;SDS011;5313;48.834;9.228;2023-11-19T13:21:39;1.20;;;0.50;;
10529;SDS011;5313;48.834;9.228;2023-11-19T13:24:05;0.97;;;0.50;;
10529;SDS011;5313;48.834;9.228;2023-11-19T13:26:31;1.03;;;0.47;;
10529;SDS011;5313;48.834;9.228;2023-11-19T13:28:57;2.40;;;0.87;;
10529;SDS011;5313;48.834;9.228;2023-11-19T13:31:22;1.77;;;0.60;;
10529;SDS011;5313;48.834;9.228;2023-11-19T13:33:48;0.97;;;0.50;;
10529;SDS011;5313;48.834;9.228;2023-11-19T13:36:13;2.00;;;0.57;;
10529;SDS011;5313;48.834;9.228;2023-11-19T13:38:39;2.80;;;0.50;;
10529;SDS011;5313;48.834;9.228;2023-11-19T13:41:07;2.70;;;0.50;;
10529;SDS011;5313;48.834;9.228;2023-11-19T13:43:34;1.20;;;0.50;;
10529;SDS011;5313;48.834;9.228;2023-11-19T13:46:00;1.47;;;0.60;;
10529;SDS011;5313;48.834;9.228;2023-11-19T13:48:26;0.90;;;0.40;;
10529;SDS011;5313;48.834;9.228;2023-11-19T13:50:53;1.60;;;0.50;;
10529;SDS011;5313;48.834;9.228;2023-11-19T13:53:19;1.40;;;0.53;;
10529;SDS011;5313;48.834;9.228;2023-11-19T13:55:45;1.23;;;0.40;;
10529;SDS011;5313;48.834;9.228;2023-11-19T13:58:11;1.30;;;0.50;;
10529;SDS011;5313;48.834;9.228;2023-11-19T14:00:36;1.77;;;0.80;;
10529;SDS011;5313;48.834;9.228;2023-11-19T14:03:02;1.03;;;0.60;;
10529;SDS011;5313;48.834;9.228;2023-11-19T14:05:28;1.27;;;0.50;;
10529;SDS011;5313;48.834;9.228;2023-11-19T14:07:53;0.93;;;0.60;;
10529;SDS011;5313;48.834;9.228;2023-11-19T14:10:21;1.80;;;0.43;;
10529;SDS011;5313;48.834;9.228;2023-11-19T14:12:47;1.67;;;0.60;;
10529;SDS011;5313;48.834;9.228;2023-11-19T14:15:14;1.47;;;0.50;;
10529;SDS011;5313;48.834;9.228;2023-11-19T14:17:42;1.37;;;0.50;;
10529;SDS011;5313;48.834;9.228;2023-11-19T14:20:08;0.57;;;0.47;;
10529;SDS011;5313;48.834;9.228;2023-11-19T14:22:44;1.90;;;0.57;;
10529;SDS011;5313;48.834;9.228;2023-11-19T14:25:13;1.13;;;0.40;;
10529;SDS011;5313;48.834;9.228;2023-11-19T14:27:41;1.50;;;0.47;;
10529;SDS011;5313;48.834;9.228;2023-11-19T14:30:08;1.00;;;0.50;;
10529;SDS011;5313;48.834;9.228;2023-11-19T14:32:39;1.77;;;0.60;;
10529;SDS011;5313;48.834;9.228;2023-11-19T14:35:07;1.37;;;0.70;;
10529;SDS011;5313;48.834;9.228;2023-11-19T14:37:33;1.47;;;0.50;;
10529;SDS011;5313;48.834;9.228;2023-11-19T14:39:59;2.37;;;0.80;;
10529;SDS011;5313;48.834;9.228;2023-11-19T14:42:25;1.13;;;0.60;;
10529;SDS011;5313;48.834;9.228;2023-11-19T14:44:51;1.93;;;0.50;;
10529;SDS011;5313;48.834;9.228;2023-11-19T14:47:20;1.40;;;0.60;;
10529;SDS011;5313;48.834;9.228;2023-11-19T14:49:46;2.60;;;0.60;;
10529;SDS011;5313;48.834;9.228;2023-11-19T14:52:12;1.03;;;0.50;;
10529;SDS011;5313;48.834;9.228;2023-11-19T14:54:38;2.03;;;0.70;;
10529;SDS011;5313;48.834;9.228;2023-11-19T14:57:03;2.63;;;0.90;;
10529;SDS011;5313;48.834;9.228;2023-11-19T14:59:29;1.20;;;0.77;;
10529;SDS011;5313;48.834;9.228;2023-11-19T15:01:55;2.50;;;0.70;;
10529;SDS011;5313;48.834;9.228;2023-11-19T15:04:20;1.63;;;0.60;;
10529;SDS011;5313;48.834;9.228;2023-11-19T15:06:46;1.63;;;0.60;;
10529;SDS011;5313;48.834;9.228;2023-11-19T15:09:11;1.47;;;0.80;;
10529;SDS011;5313;48.834;9.228;2023-11-19T15:11:45;1.77;;;1.00;;
10529;SDS011;5313;48.834;9.228;2023-11-19T15:14:11;1.47;;;0.90;;
10529;SDS011;5313;48.834;9.228;2023-11-19T15:16:40;2.13;;;0.90;;
10529;SDS011;5313;48.834;9.228;2023-11-19T15:19:05;1.10;;;0.70;;